Flight Track Log - Related Links

Times and Time Zones

All times are in EDT time to prevent confusion due to time zone crossing. See the CPT7773 flight status page for this flight to view local times or setup timezone preferences in your user account.

Time Position Orientation Groundspeed Altitude Reporting Facility
EDT Latitude Longitude Course Direction KTS MPH feet Rate Location/Type
Tue 08:40:00 PM 44.3791 -108.7094 120° Southeast  Level FlightAware Approximate
Tue 08:41:00 PM 44.3573 -108.6570 120° Southeast  Level FlightAware Approximate
Tue 08:42:00 PM 44.3355 -108.6046 120° Southeast  Level FlightAware Approximate
Tue 08:43:00 PM 44.3137 -108.5522 120° Southeast  Level FlightAware Approximate
Tue 08:44:00 PM 44.2918 -108.4998 120° Southeast  Level FlightAware Approximate
Tue 08:45:00 PM 44.2699 -108.4475 120° Southeast  Level FlightAware Approximate
Tue 08:46:00 PM 44.2473 -108.3960 133° Southeast  Level FlightAware Approximate
Tue 08:47:00 PM 44.2178 -108.3516 133° Southeast  Level FlightAware Approximate
Tue 08:48:00 PM 44.1883 -108.3073 133° Southeast  Level FlightAware Approximate
Tue 08:49:00 PM 44.1588 -108.2630 133° Southeast  Level FlightAware Approximate
Tue 08:50:00 PM 44.1292 -108.2188 133° Southeast  Level FlightAware Approximate
Tue 08:51:00 PM 44.0997 -108.1745 133° Southeast  Level FlightAware Approximate
Tue 08:52:00 PM 44.0703 -108.1302 133° Southeast  Level FlightAware Approximate
Tue 08:53:00 PM 44.0408 -108.0859 133° Southeast  Level FlightAware Approximate
Tue 08:54:00 PM 44.0113 -108.0417 133° Southeast  Level FlightAware Approximate
Tue 08:55:00 PM 43.9818 -107.9975 133° Southeast  Level FlightAware Approximate
Tue 08:56:00 PM 43.9523 -107.9534 133° Southeast  Level FlightAware Approximate
Tue 08:57:00 PM 43.9300 -107.9018 120° Southeast  Level FlightAware Approximate
Tue 08:58:00 PM 43.9083 -107.8497 120° Southeast  Level FlightAware Approximate
Tue 08:59:00 PM 43.8865 -107.7976 120° Southeast  Level FlightAware Approximate
Tue 09:00:00 PM 43.8644 -107.7459 128° Southeast  Level FlightAware Approximate
Tue 09:01:00 PM 43.8377 -107.6985 128° Southeast  Level FlightAware Approximate
Tue 09:02:00 PM 43.8110 -107.6511 128° Southeast  Level FlightAware Approximate
Tue 09:03:00 PM 43.7843 -107.6037 128° Southeast  Level FlightAware Approximate
Tue 09:04:00 PM 43.7576 -107.5564 128° Southeast  Level FlightAware Approximate
Tue 09:05:00 PM 43.7309 -107.5091 128° Southeast  Level FlightAware Approximate
Tue 09:05:38 PM 43.7814 -107.5925 125° Southeast 170 196 11,000  Level Denver Center
Tue 09:06:00 PM 43.7041 -107.4619 128° Southeast  Level FlightAware Approximate
Tue 09:07:00 PM 43.6773 -107.4147 128° Southeast  Level FlightAware Approximate
Tue 09:07:00 PM 43.7384 -107.5359 136° Southeast  Level Estimated
Tue 09:08:00 PM 43.6505 -107.3676 128° Southeast  Level FlightAware Approximate
Tue 09:09:00 PM 43.6259 -107.3183 125° Southeast  Level FlightAware Approximate
Tue 09:10:00 PM 43.6012 -107.2690 125° Southeast  Level FlightAware Approximate
Tue 09:12:01 PM 43.4933 -107.0283 137° Southeast 188 216 11,100  Level Denver Center
Tue 09:13:02 PM 43.4617 -106.9708 127° Southeast 169 194 11,100 -49 Level Denver Center
Tue 09:14:00 PM 43.5181 -107.2474 136° Southeast  Level Estimated
Tue 09:14:04 PM 43.4333 -106.9208 128° Southeast 172 198 11,000  Level Denver Center
Tue 09:15:00 PM 43.4865 -107.2064 137° Southeast  Level Estimated
Tue 09:15:17 PM 43.4058 -106.8703 127° Southeast 172 198 11,000  Level Denver Center
Tue 09:16:00 PM 43.4550 -107.1654 137° Southeast  Level Estimated
Tue 09:16:19 PM 43.3597 -106.8269 146° Southeast 159 183 10,900  Level Denver Center
Tue 09:17:00 PM 43.4234 -107.1244 137° Southeast  Level Estimated
Tue 09:17:21 PM 43.3122 -106.7906 151° Southeast 166 191 10,100  Level Denver Center
Tue 09:18:23 PM 43.2711 -106.7581 150° Southeast 172 198 10,000 -49 Descending Denver Center
Tue 09:19:24 PM 43.2331 -106.7269 149° Southeast 171 197 10,000  Level Denver Center
Tue 09:20:26 PM 43.1906 -106.6919 149° Southeast 165 190 10,000 -242 Level Denver Center
Tue 09:21:28 PM 43.1547 -106.6583 146° Southeast 164 189 9,500 -488 Descending Denver Center
Tue 09:22:29 PM 43.1119 -106.6081 139° Southeast 175 201 9,000 -537 Descending Denver Center
Tue 09:23:31 PM 43.0767 -106.5664 139° Southeast 177 204 8,400 -581 Descending Denver Center
Tue 09:24:33 PM 43.0339 -106.5194 141° Southeast 176 203 7,800 -537 Descending Denver Center
Tue 09:25:34 PM 42.9983 -106.4819 142° Southeast 173 199 7,300 -390 Descending Denver Center
Tue 09:26:36 PM 42.9658 -106.4397 136° Southeast 170 196 7,000 -290 Descending Denver Center
Tue 09:28:00 PM 42.9000 -106.4500 160° South  Level FlightAware Approximate

Login

Don't have an account? Register now (free) for customized features, flight alerts, and more!